Balaton, Minnesota
Current Conditions -  °F | °C
As of 9:13 PM on Friday 21 Nov 2014 (Local Time) from KTKC Reporting Station
Broken Clouds Broken Clouds  
Wind Chill: 22°   Ceiling: 11000
Heat Index: 34°   Visibility: 10mi
Dew Point: 28°   Wind: 24mph
Humidity: 79%   Direction: 220°SW
Pressure: 29.84"   Gusts: 30mph
Location:  44.23°N, 95.87°W
Report Text: KTKC 220313Z AUTO 22021G26KT 10SM BKN110 01/M02 A2984 RMK AO2 T00131020
Loading
Personal Weather Stations






























Interactive Weather Map New forecast layout! Learn more

10-Day Weather Forecast

Advertisements
Track Severe Weather on mobile